createdAt,value
2018-05-26T00:00:37.431Z,99.90
2018-05-26T00:03:04.939Z,99.90
2018-05-26T00:05:32.466Z,99.90
2018-05-26T00:07:59.986Z,99.90
2018-05-26T00:10:28.265Z,99.90
2018-05-26T00:12:56.557Z,99.90
2018-05-26T00:15:24.053Z,99.90
2018-05-26T00:17:51.569Z,99.90
2018-05-26T00:20:19.107Z,99.90
2018-05-26T00:22:53.165Z,99.90
2018-05-26T00:25:21.137Z,99.90
2018-05-26T00:27:48.673Z,99.90
2018-05-26T00:30:16.192Z,99.90
2018-05-26T00:32:44.487Z,99.90
2018-05-26T00:35:12.939Z,99.90
2018-05-26T00:37:40.455Z,99.90
2018-05-26T00:40:07.973Z,99.90
2018-05-26T00:42:35.476Z,99.90
2018-05-26T00:45:03.002Z,99.90
2018-05-26T00:47:31.295Z,99.90
2018-05-26T00:49:58.804Z,99.90
2018-05-26T00:52:26.327Z,99.90
2018-05-26T00:54:53.984Z,99.90
2018-05-26T00:57:21.499Z,99.90
2018-05-26T00:59:49.033Z,99.90
2018-05-26T01:02:16.539Z,99.90
2018-05-26T01:04:44.129Z,99.90
2018-05-26T01:07:11.665Z,99.90
2018-05-26T01:09:39.171Z,99.90
2018-05-26T01:12:06.701Z,99.90
2018-05-26T01:14:34.351Z,99.90
2018-05-26T01:17:01.879Z,99.90
2018-05-26T01:19:30.143Z,99.90
2018-05-26T01:21:57.655Z,99.90
2018-05-26T01:24:25.206Z,99.90
2018-05-26T01:26:52.723Z,99.90
2018-05-26T01:29:21.015Z,99.90
2018-05-26T01:31:49.289Z,99.90
2018-05-26T01:34:16.804Z,99.90
2018-05-26T01:36:44.319Z,99.90
2018-05-26T01:39:11.853Z,99.90
2018-05-26T01:41:40.134Z,99.90
2018-05-26T01:44:08.435Z,99.90
2018-05-26T01:46:35.982Z,99.90
2018-05-26T01:49:03.497Z,99.90
2018-05-26T01:51:31.007Z,99.90
2018-05-26T01:53:58.517Z,99.90
2018-05-26T01:56:26.040Z,99.90
2018-05-26T01:58:53.553Z,99.90
2018-05-26T02:01:21.829Z,99.90
2018-05-26T02:03:50.115Z,99.90
2018-05-26T02:06:18.391Z,99.90
2018-05-26T02:08:46.653Z,99.90
2018-05-26T02:11:14.179Z,99.90
2018-05-26T02:13:42.466Z,99.90
2018-05-26T02:16:09.977Z,99.90
2018-05-26T02:18:37.481Z,99.90
2018-05-26T02:21:04.993Z,99.90
2018-05-26T02:23:32.511Z,99.90
2018-05-26T02:26:00.059Z,99.90
2018-05-26T02:28:27.569Z,99.90
2018-05-26T02:30:55.089Z,99.90
2018-05-26T02:33:23.373Z,99.90
2018-05-26T02:35:50.882Z,99.90
2018-05-26T02:38:18.400Z,99.90
2018-05-26T02:40:46.683Z,99.90
2018-05-26T02:43:14.973Z,99.90
2018-05-26T02:45:42.503Z,99.90
2018-05-26T02:48:10.775Z,99.90
2018-05-26T02:50:39.056Z,99.90
2018-05-26T02:53:07.420Z,99.90
2018-05-26T02:55:34.963Z,99.90
2018-05-26T02:58:03.255Z,99.90
2018-05-26T03:00:30.764Z,99.90
2018-05-26T03:02:58.270Z,99.90
2018-05-26T03:05:31.531Z,99.90
2018-05-26T03:08:04.654Z,99.90
2018-05-26T03:10:37.808Z,99.90
2018-05-26T03:13:10.948Z,99.90
2018-05-26T03:15:39.251Z,99.90
2018-05-26T03:18:09.385Z,99.90
2018-05-26T03:20:36.897Z,99.90
2018-05-26T03:23:05.169Z,99.90
2018-05-26T03:25:32.701Z,99.90
2018-05-26T03:28:00.215Z,99.90
2018-05-26T03:30:27.729Z,99.90
2018-05-26T03:32:55.241Z,99.90
2018-05-26T03:35:22.759Z,99.90
2018-05-26T03:37:50.362Z,99.90
2018-05-26T03:40:17.873Z,99.90
2018-05-26T03:42:45.402Z,99.90
2018-05-26T03:45:12.907Z,99.90
2018-05-26T03:47:41.770Z,99.90
2018-05-26T03:50:09.279Z,99.90
2018-05-26T03:52:36.781Z,99.90
2018-05-26T03:58:23.886Z,99.90
2018-05-26T04:00:51.419Z,99.90
2018-05-26T04:03:19.692Z,99.90
2018-05-26T04:05:47.270Z,99.90
2018-05-26T04:08:15.579Z,99.90
2018-05-26T04:10:43.094Z,99.90
2018-05-26T04:13:10.588Z,99.90
2018-05-26T04:15:38.156Z,99.90
2018-05-26T04:18:05.676Z,99.90
2018-05-26T04:20:33.193Z,99.90
2018-05-26T04:23:00.703Z,99.90
2018-05-26T04:25:28.209Z,99.90
2018-05-26T04:27:55.777Z,99.90
2018-05-26T04:30:23.283Z,99.90
2018-05-26T04:32:50.793Z,99.90
2018-05-26T04:35:18.369Z,99.90
2018-05-26T04:37:45.846Z,99.90
2018-05-26T04:40:13.343Z,99.90
2018-05-26T04:42:40.861Z,99.90
2018-05-26T04:45:08.709Z,99.90
2018-05-26T04:47:36.799Z,99.90
2018-05-26T04:50:04.295Z,99.90
2018-05-26T04:52:31.817Z,99.90
2018-05-26T04:54:59.343Z,99.90
2018-05-26T04:57:27.639Z,99.90
2018-05-26T04:59:55.138Z,99.90
2018-05-26T05:02:22.644Z,99.90
2018-05-26T05:04:50.945Z,99.90
2018-05-26T05:07:19.982Z,99.90
2018-05-26T05:09:47.511Z,99.90
2018-05-26T05:12:15.018Z,99.90
2018-05-26T05:14:43.304Z,99.90
2018-05-26T05:17:11.583Z,99.90
2018-05-26T05:19:39.857Z,99.90
2018-05-26T05:22:08.149Z,99.90
2018-05-26T05:24:35.674Z,99.90
2018-05-26T05:27:03.177Z,99.90
2018-05-26T05:29:30.690Z,99.90
2018-05-26T05:31:58.327Z,99.90
2018-05-26T05:34:25.829Z,99.90
2018-05-26T05:36:54.116Z,99.90
2018-05-26T05:39:21.618Z,99.90
2018-05-26T05:41:49.758Z,99.90
2018-05-26T05:44:17.261Z,99.90
2018-05-26T05:46:44.811Z,99.90
2018-05-26T05:49:12.308Z,99.90
2018-05-26T05:51:40.585Z,99.90
2018-05-26T05:54:08.880Z,99.90
2018-05-26T05:56:36.475Z,99.90
2018-05-26T05:59:04.014Z,99.90
2018-05-26T06:01:31.549Z,99.90
2018-05-26T06:03:59.064Z,99.90
2018-05-26T06:06:26.650Z,99.90
2018-05-26T06:08:55.045Z,99.90
2018-05-26T06:11:22.569Z,99.90
2018-05-26T06:13:50.173Z,99.90
2018-05-26T06:16:17.687Z,99.90
2018-05-26T06:18:46.449Z,99.90
2018-05-26T06:21:13.967Z,99.90
2018-05-26T06:23:41.506Z,99.90
2018-05-26T06:26:09.819Z,99.90
2018-05-26T06:28:37.341Z,99.90
2018-05-26T06:31:04.854Z,99.90
2018-05-26T06:33:32.356Z,99.90
2018-05-26T06:35:59.917Z,99.90
2018-05-26T06:38:28.202Z,99.90
2018-05-26T06:40:55.747Z,99.90
2018-05-26T06:43:24.010Z,99.90
2018-05-26T06:45:52.298Z,99.90
2018-05-26T06:48:20.607Z,99.90
2018-05-26T06:50:48.149Z,99.90
2018-05-26T06:53:16.416Z,99.90
2018-05-26T06:55:44.719Z,99.90
2018-05-26T06:58:12.243Z,99.90
2018-05-26T07:00:40.509Z,99.90
2018-05-26T07:03:08.232Z,99.90
2018-05-26T07:05:35.733Z,99.90
2018-05-26T07:08:03.273Z,99.90
2018-05-26T07:10:30.827Z,99.90
2018-05-26T07:12:58.753Z,99.90
2018-05-26T07:15:26.241Z,99.90
2018-05-26T07:17:53.736Z,99.90
2018-05-26T07:20:22.028Z,99.90
2018-05-26T07:22:50.301Z,99.90
2018-05-26T07:25:18.595Z,99.90
2018-05-26T07:27:46.158Z,99.90
2018-05-26T07:30:13.658Z,99.90
2018-05-26T07:32:41.169Z,99.90
2018-05-26T07:35:08.705Z,99.90
2018-05-26T07:37:36.978Z,99.00
2018-05-26T07:40:05.281Z,97.20
2018-05-26T07:42:32.793Z,97.50
2018-05-26T07:45:00.297Z,97.20
2018-05-26T07:47:27.829Z,97.60
2018-05-26T07:49:57.869Z,96.80
2018-05-26T07:52:26.217Z,95.50
2018-05-26T07:54:53.735Z,95.50
2018-05-26T07:57:21.275Z,94.50
2018-05-26T07:59:48.821Z,94.00
2018-05-26T08:02:16.405Z,95.00
2018-05-26T08:04:44.009Z,95.70
2018-05-26T08:07:12.392Z,92.70
2018-05-26T08:09:40.066Z,93.00
2018-05-26T08:12:07.719Z,91.30
2018-05-26T08:14:35.998Z,90.20
2018-05-26T08:17:04.393Z,91.60
2018-05-26T08:19:31.916Z,91.60
2018-05-26T08:21:59.437Z,89.90
2018-05-26T08:24:26.948Z,90.90
2018-05-26T08:26:54.462Z,90.90
2018-05-26T08:29:22.826Z,91.40
2018-05-26T08:31:50.348Z,91.40
2018-05-26T08:34:19.351Z,89.50
2018-05-26T08:36:46.990Z,89.50
2018-05-26T08:39:14.542Z,90.10
2018-05-26T08:41:42.842Z,88.60
2018-05-26T08:44:11.112Z,86.40
2018-05-26T08:46:39.411Z,84.60
2018-05-26T08:49:06.930Z,84.50
2018-05-26T08:51:34.456Z,88.00
2018-05-26T08:54:01.988Z,88.70
2018-05-26T08:56:29.522Z,89.80
2018-05-26T08:58:57.800Z,84.60
2018-05-26T09:01:26.073Z,83.70
2018-05-26T09:03:54.409Z,79.70
2018-05-26T09:06:21.972Z,79.60
2018-05-26T09:08:49.473Z,75.90
2018-05-26T09:11:18.738Z,75.40
2018-05-26T09:13:46.256Z,75.40
2018-05-26T09:16:13.836Z,78.90
2018-05-26T09:18:41.420Z,79.90
2018-05-26T09:21:08.896Z,78.00
2018-05-26T09:23:37.189Z,72.40
2018-05-26T09:26:05.492Z,78.90
2018-05-26T09:28:33.046Z,78.90
2018-05-26T09:31:00.585Z,84.40
2018-05-26T09:33:28.858Z,82.90
2018-05-26T09:35:57.160Z,85.30
2018-05-26T09:38:24.893Z,85.30
2018-05-26T09:40:53.167Z,81.20
2018-05-26T09:43:21.432Z,78.50
2018-05-26T09:45:49.787Z,79.10
2018-05-26T09:48:17.318Z,79.00
2018-05-26T09:50:44.844Z,81.60
2018-05-26T09:53:13.144Z,77.60
2018-05-26T09:55:41.478Z,77.60
2018-05-26T09:58:08.976Z,78.40
2018-05-26T10:00:37.343Z,78.80
2018-05-26T10:03:04.868Z,77.60
2018-05-26T10:05:32.486Z,80.30
2018-05-26T10:08:00.042Z,79.60
2018-05-26T10:10:27.548Z,80.00
2018-05-26T10:12:55.042Z,79.60
2018-05-26T10:15:22.711Z,78.90
2018-05-26T10:17:50.255Z,79.10
2018-05-26T10:20:19.022Z,78.00
2018-05-26T10:22:47.290Z,73.90
2018-05-26T10:25:14.863Z,73.80
2018-05-26T10:27:43.140Z,67.00
2018-05-26T10:30:11.454Z,73.30
2018-05-26T10:32:38.975Z,73.30
2018-05-26T10:35:07.273Z,71.00
2018-05-26T10:37:34.783Z,70.90
2018-05-26T10:40:02.307Z,70.20
2018-05-26T10:42:29.805Z,70.10
2018-05-26T10:44:57.335Z,73.50
2018-05-26T10:47:24.859Z,71.60
2018-05-26T10:49:52.357Z,66.00
2018-05-26T10:52:19.882Z,61.60
2018-05-26T10:54:47.378Z,57.20
2018-05-26T10:57:14.921Z,56.20
2018-05-26T10:59:42.668Z,57.70
2018-05-26T11:02:10.228Z,57.80
2018-05-26T11:04:37.761Z,58.40
2018-05-26T11:07:06.082Z,65.90
2018-05-26T11:09:35.371Z,65.80
2018-05-26T11:12:03.815Z,61.70
2018-05-26T11:14:32.206Z,61.30
2018-05-26T11:16:59.651Z,61.20
2018-05-26T11:19:28.017Z,56.60
2018-05-26T11:21:56.297Z,55.40
2018-05-26T11:24:24.690Z,59.00
2018-05-26T11:26:52.164Z,58.90
2018-05-26T11:29:19.689Z,56.20
2018-05-26T11:31:48.896Z,57.70
2018-05-26T11:34:17.187Z,59.60
2018-05-26T11:36:44.688Z,59.60
2018-05-26T11:39:12.245Z,58.80
2018-05-26T11:41:39.749Z,56.70
2018-05-26T11:44:08.822Z,56.00
2018-05-26T11:46:36.326Z,56.00
2018-05-26T11:49:03.840Z,59.50
2018-05-26T11:51:31.339Z,56.80
2018-05-26T11:53:58.865Z,55.60
2018-05-26T11:56:27.182Z,51.80
2018-05-26T11:58:54.680Z,51.60
2018-05-26T12:01:22.292Z,51.50
2018-05-26T12:03:49.818Z,50.60
2018-05-26T12:06:17.368Z,49.80
2018-05-26T12:08:44.987Z,46.70
2018-05-26T12:11:12.599Z,49.10
2018-05-26T12:13:40.091Z,51.10
2018-05-26T12:16:07.616Z,49.60
2018-05-26T12:18:35.902Z,46.60
2018-05-26T12:21:04.187Z,48.80
2018-05-26T12:23:32.192Z,48.70
2018-05-26T12:25:59.725Z,52.40
2018-05-26T12:28:27.237Z,51.90
2018-05-26T12:30:54.846Z,49.40
2018-05-26T12:33:22.366Z,48.90
2018-05-26T12:35:49.865Z,48.70
2018-05-26T12:38:17.385Z,53.60
2018-05-26T12:40:45.718Z,54.10
2018-05-26T12:43:14.007Z,50.60
2018-05-26T12:45:41.554Z,50.30
2018-05-26T12:48:09.052Z,46.80
2018-05-26T12:50:37.340Z,43.40
2018-05-26T12:53:07.280Z,42.80
2018-05-26T12:55:34.787Z,42.80
2018-05-26T12:58:02.325Z,45.40
2018-05-26T13:00:30.331Z,48.40
2018-05-26T13:02:58.605Z,50.70
2018-05-26T13:05:26.906Z,49.50
2018-05-26T13:07:54.419Z,49.50
2018-05-26T13:10:21.961Z,50.60
2018-05-26T13:12:49.483Z,51.90
2018-05-26T13:15:17.011Z,52.00
2018-05-26T13:17:44.515Z,51.20
2018-05-26T13:20:12.486Z,50.80
2018-05-26T13:22:40.046Z,50.10
2018-05-26T13:25:07.551Z,47.30
2018-05-26T13:27:35.063Z,47.10
2018-05-26T13:30:02.561Z,53.60
2018-05-26T13:32:30.087Z,53.60
2018-05-26T13:34:57.626Z,52.90
2018-05-26T13:37:25.134Z,52.30
2018-05-26T13:39:52.658Z,54.00
2018-05-26T13:42:20.166Z,51.90
2018-05-26T13:47:22.466Z,54.20
2018-05-26T13:49:50.760Z,56.60
2018-05-26T13:52:18.260Z,56.50
2018-05-26T13:54:45.889Z,57.20
2018-05-26T13:57:13.451Z,56.20
2018-05-26T13:59:40.961Z,55.70
2018-05-26T14:02:08.559Z,54.90
2018-05-26T14:04:36.125Z,56.40
2018-05-26T14:07:03.664Z,54.90
2018-05-26T14:09:31.167Z,55.20
2018-05-26T14:11:58.706Z,55.60
2018-05-26T14:14:26.252Z,56.00
2018-05-26T14:16:53.775Z,56.50
2018-05-26T14:19:22.048Z,55.90
2018-05-26T14:21:50.321Z,56.70
2018-05-26T14:24:17.838Z,56.70
2018-05-26T14:26:45.361Z,56.30
2018-05-26T14:29:13.049Z,57.30
2018-05-26T14:31:40.571Z,58.60
2018-05-26T14:34:08.884Z,57.50
2018-05-26T14:36:36.397Z,57.50
2018-05-26T14:39:04.669Z,58.40
2018-05-26T14:41:32.248Z,57.80
2018-05-26T14:44:00.561Z,57.60
2018-05-26T14:46:28.133Z,57.50
2018-05-26T14:48:56.483Z,58.50
2018-05-26T14:51:24.037Z,58.50
2018-05-26T14:53:51.526Z,59.00
2018-05-26T14:56:19.682Z,58.90
2018-05-26T14:58:47.197Z,58.70
2018-05-26T15:01:15.486Z,57.90
2018-05-26T15:03:43.884Z,57.40
2018-05-26T15:06:11.413Z,57.40
2018-05-26T15:08:39.687Z,57.10
2018-05-26T15:11:07.215Z,57.10
2018-05-26T15:13:34.743Z,56.70
2018-05-26T15:16:02.356Z,57.00
2018-05-26T15:18:29.869Z,57.50
2018-05-26T15:20:57.381Z,57.70
2018-05-26T15:23:25.647Z,58.60
2018-05-26T15:25:53.240Z,58.60
2018-05-26T15:28:20.775Z,58.00
2018-05-26T15:30:49.046Z,59.40
2018-05-26T15:33:17.719Z,59.60
2018-05-26T15:35:45.221Z,59.60
2018-05-26T15:38:12.732Z,60.40
2018-05-26T15:40:40.263Z,61.00
2018-05-26T15:43:07.792Z,59.70
2018-05-26T15:45:35.317Z,59.20
2018-05-26T15:48:02.845Z,58.40
2018-05-26T15:50:30.349Z,58.00
2018-05-26T15:52:58.652Z,59.90
2018-05-26T15:55:26.157Z,59.90
2018-05-26T15:57:53.893Z,60.30
2018-05-26T16:00:21.385Z,61.30
2018-05-26T16:02:48.923Z,62.40
2018-05-26T16:05:16.418Z,63.20
2018-05-26T16:07:44.778Z,63.40
2018-05-26T16:10:12.338Z,63.30
2018-05-26T16:12:40.318Z,63.40
2018-05-26T16:15:09.299Z,63.70
2018-05-26T16:17:37.284Z,64.50
2018-05-26T16:20:05.583Z,62.50
2018-05-26T16:22:33.125Z,62.40
2018-05-26T16:25:01.402Z,64.00
2018-05-26T16:27:29.679Z,64.20
2018-05-26T16:29:57.961Z,65.40
2018-05-26T16:32:25.456Z,65.40
2018-05-26T16:34:52.970Z,62.90
2018-05-26T16:37:20.483Z,63.00
2018-05-26T16:39:48.645Z,63.00
2018-05-26T16:42:16.242Z,62.90
2018-05-26T16:44:43.805Z,62.00
2018-05-26T16:47:11.323Z,62.10
2018-05-26T16:49:38.829Z,61.70
2018-05-26T16:52:07.124Z,61.70
2018-05-26T16:54:34.640Z,61.70
2018-05-26T16:57:02.264Z,61.90
2018-05-26T16:59:29.776Z,61.60
2018-05-26T17:01:58.078Z,60.70
2018-05-26T17:04:25.611Z,60.70
2018-05-26T17:06:53.910Z,60.00
2018-05-26T17:09:21.449Z,59.90
2018-05-26T17:11:48.951Z,60.00
2018-05-26T17:14:16.474Z,59.80
2018-05-26T17:16:44.740Z,60.80
2018-05-26T17:19:13.060Z,61.20
2018-05-26T17:21:40.556Z,61.20
2018-05-26T17:24:08.140Z,61.60
2018-05-26T17:26:36.428Z,61.30
2018-05-26T17:29:03.956Z,61.30
2018-05-26T17:31:35.341Z,61.40
2018-05-26T17:34:02.873Z,63.20
2018-05-26T17:36:31.162Z,63.70
2018-05-26T17:38:59.450Z,62.90
2018-05-26T17:41:27.660Z,62.80
2018-05-26T17:43:55.161Z,63.70
2018-05-26T17:46:23.463Z,63.60
2018-05-26T17:48:50.984Z,63.70
2018-05-26T17:51:18.520Z,64.00
2018-05-26T17:53:46.038Z,63.20
2018-05-26T17:56:13.595Z,64.00
2018-05-26T17:58:41.109Z,64.60
2018-05-26T18:01:08.621Z,65.00
2018-05-26T18:03:36.117Z,65.30
2018-05-26T18:06:03.625Z,65.60
2018-05-26T18:08:31.171Z,66.00
2018-05-26T18:10:59.040Z,66.10
2018-05-26T18:13:27.342Z,66.70
2018-05-26T18:15:54.854Z,66.70
2018-05-26T18:18:22.376Z,67.20
2018-05-26T18:20:49.872Z,67.30
2018-05-26T18:23:17.581Z,67.80
2018-05-26T18:25:45.097Z,68.60
2018-05-26T18:28:13.445Z,68.20
2018-05-26T18:30:41.030Z,69.60
2018-05-26T18:33:08.629Z,70.40
2018-05-26T18:35:36.152Z,71.30
2018-05-26T18:38:04.466Z,72.80
2018-05-26T18:40:33.110Z,72.60
2018-05-26T18:43:00.622Z,73.00
2018-05-26T18:45:28.163Z,74.20
2018-05-26T18:47:55.665Z,74.50
2018-05-26T18:50:23.186Z,75.40
2018-05-26T18:52:50.787Z,76.20
2018-05-26T18:55:18.337Z,76.60
2018-05-26T18:57:45.853Z,77.90
2018-05-26T19:00:13.376Z,78.30
2018-05-26T19:02:41.686Z,80.00
2018-05-26T19:05:09.841Z,79.50
2018-05-26T19:07:38.221Z,80.80
2018-05-26T19:10:05.775Z,80.80
2018-05-26T19:12:34.080Z,82.30
2018-05-26T19:15:01.604Z,82.20
2018-05-26T19:17:29.186Z,83.40
2018-05-26T19:19:56.715Z,83.70
2018-05-26T19:22:24.217Z,84.60
2018-05-26T19:24:52.942Z,85.20
2018-05-26T19:27:21.315Z,85.90
2018-05-26T19:29:48.840Z,86.40
2018-05-26T19:32:16.355Z,86.90
2018-05-26T19:34:45.006Z,88.50
2018-05-26T19:37:12.553Z,88.30
2018-05-26T19:39:40.083Z,88.80
2018-05-26T19:42:07.616Z,89.30
2018-05-26T19:44:35.934Z,90.30
2018-05-26T19:47:03.464Z,90.20
2018-05-26T19:49:31.760Z,90.50
2018-05-26T19:51:59.313Z,90.50
2018-05-26T19:54:26.833Z,90.70
2018-05-26T19:56:55.819Z,91.00
2018-05-26T19:59:23.342Z,91.20
2018-05-26T20:01:50.918Z,91.30
2018-05-26T20:04:18.443Z,91.50
2018-05-26T20:06:45.971Z,91.40
2018-05-26T20:09:13.531Z,91.80
2018-05-26T20:11:41.097Z,92.10
2018-05-26T20:14:09.384Z,92.60
2018-05-26T20:16:37.691Z,92.90
2018-05-26T20:19:05.197Z,92.90
2018-05-26T20:21:33.508Z,93.20
2018-05-26T20:24:01.070Z,93.20
2018-05-26T20:26:28.625Z,93.60
2018-05-26T20:28:56.157Z,93.70
2018-05-26T20:31:23.692Z,94.00
2018-05-26T20:33:52.203Z,94.30
2018-05-26T20:36:20.500Z,94.60
2018-05-26T20:38:48.198Z,94.60
2018-05-26T20:41:15.752Z,94.80
2018-05-26T20:43:43.271Z,95.00
2018-05-26T20:46:10.813Z,95.20
2018-05-26T20:48:39.159Z,95.40
2018-05-26T20:51:06.688Z,95.40
2018-05-26T20:53:34.268Z,95.60
2018-05-26T20:56:01.767Z,95.70
2018-05-26T20:58:30.083Z,95.90
2018-05-26T21:00:57.732Z,95.90
2018-05-26T21:03:26.279Z,96.10
2018-05-26T21:05:54.292Z,96.20
2018-05-26T21:08:21.840Z,96.50
2018-05-26T21:10:49.373Z,96.60
2018-05-26T21:13:18.141Z,96.90
2018-05-26T21:15:46.454Z,97.00
2018-05-26T21:18:14.837Z,97.10
2018-05-26T21:20:42.851Z,97.10
2018-05-26T21:23:11.151Z,97.40
2018-05-26T21:25:38.725Z,97.40
2018-05-26T21:28:07.007Z,97.80
2018-05-26T21:30:35.316Z,98.00
2018-05-26T21:33:02.864Z,98.00
2018-05-26T21:35:30.382Z,98.20
2018-05-26T21:37:57.985Z,98.30
2018-05-26T21:40:25.527Z,98.40
2018-05-26T21:42:53.037Z,98.50
2018-05-26T21:45:20.561Z,98.40
2018-05-26T21:47:48.134Z,98.20
2018-05-26T21:50:15.640Z,98.40
2018-05-26T21:52:43.187Z,98.40
2018-05-26T21:55:10.714Z,98.20
2018-05-26T21:57:38.296Z,98.60
2018-05-26T22:00:05.815Z,98.80
2018-05-26T22:02:33.361Z,99.20
2018-05-26T22:05:00.930Z,99.40
2018-05-26T22:07:28.517Z,99.60
2018-05-26T22:09:56.047Z,99.80
2018-05-26T22:12:23.572Z,99.90
2018-05-26T22:14:51.852Z,99.90
2018-05-26T22:17:20.123Z,99.90
2018-05-26T22:19:48.480Z,99.90
2018-05-26T22:22:16.905Z,99.90
2018-05-26T22:24:44.495Z,99.90
2018-05-26T22:27:12.020Z,99.90
2018-05-26T22:29:39.578Z,99.90
2018-05-26T22:32:07.099Z,99.90
2018-05-26T22:34:34.665Z,99.90
2018-05-26T22:37:02.170Z,99.90
2018-05-26T22:39:29.716Z,99.90
2018-05-26T22:41:57.233Z,99.90
2018-05-26T22:44:24.793Z,99.90
2018-05-26T22:46:52.336Z,99.90
2018-05-26T22:49:19.849Z,99.90
2018-05-26T22:51:47.382Z,99.90
2018-05-26T22:54:14.920Z,99.90
2018-05-26T22:56:42.445Z,99.90
2018-05-26T22:59:09.985Z,99.90
2018-05-26T23:01:37.505Z,99.90
2018-05-26T23:04:05.024Z,99.90
2018-05-26T23:06:32.569Z,99.90
2018-05-26T23:09:00.057Z,99.90
2018-05-26T23:11:27.564Z,99.90
2018-05-26T23:13:55.892Z,99.90
2018-05-26T23:16:23.410Z,99.90
2018-05-26T23:18:52.475Z,99.90
2018-05-26T23:21:20.008Z,99.90
2018-05-26T23:23:47.575Z,99.90
2018-05-26T23:26:15.081Z,99.90
2018-05-26T23:28:42.620Z,99.90
2018-05-26T23:31:10.915Z,99.90
2018-05-26T23:33:38.413Z,99.90
2018-05-26T23:36:05.937Z,99.90
2018-05-26T23:38:33.478Z,99.90
2018-05-26T23:41:01.786Z,99.90
2018-05-26T23:43:29.310Z,99.90
2018-05-26T23:45:57.606Z,99.90
2018-05-26T23:48:25.215Z,99.90
2018-05-26T23:50:52.779Z,99.90
2018-05-26T23:53:20.327Z,99.90
2018-05-26T23:55:47.837Z,99.90
2018-05-26T23:58:15.409Z,99.90
